createdAt,value
2018-09-15T00:01:24.650Z,97.40
2018-09-15T00:03:51.747Z,97.00
2018-09-15T00:06:18.849Z,97.00
2018-09-15T00:08:45.987Z,97.10
2018-09-15T00:11:13.075Z,97.20
2018-09-15T00:13:40.226Z,96.90
2018-09-15T00:16:07.384Z,97.30
2018-09-15T00:18:34.526Z,97.20
2018-09-15T00:21:01.649Z,97.70
2018-09-15T00:23:28.905Z,97.20
2018-09-15T00:25:56.073Z,97.20
2018-09-15T00:28:23.192Z,97.10
2018-09-15T00:30:50.467Z,97.20
2018-09-15T00:33:17.635Z,97.10
2018-09-15T00:35:44.769Z,97.10
2018-09-15T00:38:12.043Z,96.70
2018-09-15T00:40:39.207Z,96.50
2018-09-15T00:43:06.840Z,96.90
2018-09-15T00:45:33.962Z,96.90
2018-09-15T00:48:03.295Z,96.90
2018-09-15T00:50:31.489Z,97.00
2018-09-15T00:52:58.598Z,97.00
2018-09-15T00:55:25.911Z,96.80
2018-09-15T00:57:53.014Z,96.80
2018-09-15T01:00:20.657Z,96.80
2018-09-15T01:02:47.922Z,96.80
2018-09-15T01:05:15.047Z,96.90
2018-09-15T01:07:42.275Z,97.30
2018-09-15T01:10:09.451Z,97.50
2018-09-15T01:12:36.555Z,97.60
2018-09-15T01:15:05.061Z,97.60
2018-09-15T01:17:32.133Z,97.50
2018-09-15T01:19:59.290Z,97.90
2018-09-15T01:22:26.334Z,97.90
2018-09-15T01:24:53.500Z,98.10
2018-09-15T01:27:20.676Z,98.20
2018-09-15T01:29:47.855Z,98.40
2018-09-15T01:32:15.056Z,98.70
2018-09-15T01:34:42.954Z,99.00
2018-09-15T01:37:10.162Z,98.80
2018-09-15T01:39:37.340Z,98.50
2018-09-15T01:42:04.472Z,98.40
2018-09-15T01:44:31.679Z,98.60
2018-09-15T01:46:58.780Z,98.80
2018-09-15T01:49:25.898Z,99.30
2018-09-15T01:51:53.090Z,99.90
2018-09-15T01:54:20.191Z,99.80
2018-09-15T01:56:47.246Z,99.90
2018-09-15T01:59:14.389Z,99.90
2018-09-15T02:01:42.564Z,99.90
2018-09-15T02:04:09.939Z,99.90
2018-09-15T02:06:37.399Z,99.90
2018-09-15T02:09:08.099Z,99.90
2018-09-15T02:11:35.233Z,99.90
2018-09-15T02:14:02.364Z,99.90
2018-09-15T02:16:29.569Z,99.90
2018-09-15T02:18:56.717Z,99.90
2018-09-15T02:21:23.840Z,99.90
2018-09-15T02:23:51.117Z,99.90
2018-09-15T02:26:23.151Z,99.90
2018-09-15T02:28:57.200Z,99.90
2018-09-15T02:31:25.271Z,99.90
2018-09-15T02:33:52.385Z,99.90
2018-09-15T02:36:19.598Z,99.90
2018-09-15T02:38:46.644Z,99.90
2018-09-15T02:41:14.411Z,99.90
2018-09-15T02:43:41.585Z,99.90
2018-09-15T02:46:08.661Z,99.90
2018-09-15T02:48:35.815Z,99.90
2018-09-15T02:51:02.933Z,99.90
2018-09-15T02:53:30.126Z,99.90
2018-09-15T02:55:57.345Z,99.90
2018-09-15T02:58:24.431Z,99.90
2018-09-15T03:00:51.858Z,99.90
2018-09-15T03:03:23.140Z,99.90
2018-09-15T03:05:50.265Z,99.90
2018-09-15T03:11:39.047Z,99.90
2018-09-15T03:14:06.194Z,99.90
2018-09-15T03:16:33.340Z,99.90
2018-09-15T03:19:00.436Z,99.90
2018-09-15T03:21:27.595Z,99.90
2018-09-15T03:23:54.724Z,99.90
2018-09-15T03:26:21.956Z,99.90
2018-09-15T03:28:49.092Z,99.90
2018-09-15T03:31:16.209Z,99.90
2018-09-15T03:33:43.335Z,99.90
2018-09-15T03:36:10.508Z,99.90
2018-09-15T03:38:37.588Z,99.90
2018-09-15T03:41:04.852Z,99.90
2018-09-15T03:43:32.005Z,99.90
2018-09-15T03:46:00.199Z,99.90
2018-09-15T03:48:27.420Z,99.90
2018-09-15T03:50:55.251Z,99.90
2018-09-15T03:53:22.432Z,99.90
2018-09-15T03:55:49.567Z,99.90
2018-09-15T03:58:16.737Z,99.90
2018-09-15T04:00:45.685Z,99.90
2018-09-15T04:03:12.962Z,99.90
2018-09-15T04:05:40.169Z,99.90
2018-09-15T04:08:07.324Z,99.90
2018-09-15T04:10:34.476Z,99.90
2018-09-15T04:13:01.628Z,99.90
2018-09-15T04:15:28.855Z,99.90
2018-09-15T04:17:58.109Z,99.90
2018-09-15T04:20:25.384Z,99.90
2018-09-15T04:22:52.526Z,99.90
2018-09-15T04:25:19.661Z,99.90
2018-09-15T04:27:46.828Z,99.90
2018-09-15T04:30:14.560Z,99.90
2018-09-15T04:32:41.712Z,99.90
2018-09-15T04:35:08.800Z,99.90
2018-09-15T04:37:35.897Z,99.90
2018-09-15T04:40:03.113Z,99.90
2018-09-15T04:42:31.351Z,99.90
2018-09-15T04:44:58.657Z,99.90
2018-09-15T04:47:25.767Z,99.90
2018-09-15T04:49:53.083Z,99.90
2018-09-15T04:52:20.291Z,99.90
2018-09-15T04:54:47.431Z,99.90
2018-09-15T04:57:14.672Z,99.90
2018-09-15T04:59:42.852Z,99.90
2018-09-15T05:02:10.740Z,99.90
2018-09-15T05:04:37.846Z,99.90
2018-09-15T05:07:05.197Z,99.90
2018-09-15T05:09:32.453Z,99.90
2018-09-15T05:12:07.996Z,99.90
2018-09-15T05:14:35.200Z,99.90
2018-09-15T05:17:02.352Z,99.90
2018-09-15T05:19:29.562Z,99.90
2018-09-15T05:21:57.393Z,99.90
2018-09-15T05:24:24.523Z,99.90
2018-09-15T05:26:51.684Z,99.90
2018-09-15T05:29:18.968Z,99.90
2018-09-15T05:31:46.178Z,99.90
2018-09-15T05:34:13.395Z,99.90
2018-09-15T05:36:40.619Z,99.90
2018-09-15T05:39:09.460Z,99.90
2018-09-15T05:41:36.860Z,99.90
2018-09-15T05:44:04.203Z,99.90
2018-09-15T05:46:31.348Z,99.90
2018-09-15T05:48:58.520Z,99.90
2018-09-15T05:51:25.741Z,99.90
2018-09-15T05:53:52.939Z,99.90
2018-09-15T05:56:20.209Z,99.90
2018-09-15T05:58:47.344Z,99.90
2018-09-15T06:01:14.507Z,99.90
2018-09-15T06:03:41.657Z,99.90
2018-09-15T06:06:08.849Z,99.90
2018-09-15T06:08:36.106Z,99.90
2018-09-15T06:11:03.321Z,99.90
2018-09-15T06:13:30.460Z,99.90
2018-09-15T06:16:01.689Z,99.90
2018-09-15T06:18:28.865Z,99.90
2018-09-15T06:20:56.122Z,99.90
2018-09-15T06:23:24.340Z,99.90
2018-09-15T06:25:57.072Z,99.90
2018-09-15T06:28:24.335Z,99.90
2018-09-15T06:30:54.145Z,99.90
2018-09-15T06:33:21.340Z,99.90
2018-09-15T06:35:48.517Z,99.90
2018-09-15T06:38:15.766Z,99.90
2018-09-15T06:40:42.937Z,99.90
2018-09-15T06:43:10.108Z,99.90
2018-09-15T06:45:37.469Z,99.90
2018-09-15T06:48:05.112Z,99.90
2018-09-15T06:50:32.278Z,99.90
2018-09-15T06:52:59.748Z,99.90
2018-09-15T06:55:27.560Z,99.90
2018-09-15T06:57:54.840Z,99.90
2018-09-15T07:00:22.127Z,99.90
2018-09-15T07:02:49.577Z,99.90
2018-09-15T07:05:17.192Z,99.90
2018-09-15T07:07:45.005Z,99.90
2018-09-15T07:10:12.221Z,99.90
2018-09-15T07:12:39.962Z,99.90
2018-09-15T07:15:07.235Z,99.90
2018-09-15T07:17:34.500Z,99.90
2018-09-15T07:20:01.777Z,99.90
2018-09-15T07:22:29.226Z,99.90
2018-09-15T07:24:56.667Z,99.90
2018-09-15T07:27:24.038Z,99.90
2018-09-15T07:29:51.282Z,99.90
2018-09-15T07:32:18.738Z,99.90
2018-09-15T07:34:46.978Z,99.90
2018-09-15T07:37:14.587Z,99.90
2018-09-15T07:39:41.731Z,99.90
2018-09-15T07:42:09.122Z,99.90
2018-09-15T07:44:36.304Z,99.90
2018-09-15T07:47:03.656Z,99.90
2018-09-15T07:49:31.674Z,99.90
2018-09-15T07:51:59.100Z,99.90
2018-09-15T07:54:26.426Z,99.90
2018-09-15T07:56:54.162Z,99.90
2018-09-15T07:59:21.489Z,99.90
2018-09-15T08:01:49.049Z,99.90
2018-09-15T08:04:16.607Z,99.90
2018-09-15T08:06:43.840Z,99.90
2018-09-15T08:09:11.413Z,99.90
2018-09-15T08:11:38.997Z,99.90
2018-09-15T08:14:06.292Z,99.90
2018-09-15T08:16:33.411Z,99.90
2018-09-15T08:19:00.640Z,99.90
2018-09-15T08:21:27.879Z,99.90
2018-09-15T08:23:55.440Z,99.40
2018-09-15T08:26:22.833Z,99.70
2018-09-15T08:28:50.569Z,98.90
2018-09-15T08:31:17.736Z,99.00
2018-09-15T08:33:45.605Z,98.60
2018-09-15T08:36:13.005Z,98.30
2018-09-15T08:38:40.201Z,98.40
2018-09-15T08:41:07.478Z,99.20
2018-09-15T08:43:34.939Z,98.90
2018-09-15T08:46:02.180Z,98.40
2018-09-15T08:48:29.400Z,98.40
2018-09-15T08:50:58.103Z,98.70
2018-09-15T08:53:26.610Z,98.40
2018-09-15T08:55:53.986Z,98.40
2018-09-15T08:58:21.247Z,98.60
2018-09-15T09:00:49.224Z,98.40
2018-09-15T09:03:16.452Z,98.70
2018-09-15T09:05:43.622Z,98.60
2018-09-15T09:08:10.767Z,97.60
2018-09-15T09:10:37.919Z,97.10
2018-09-15T09:13:05.933Z,97.10
2018-09-15T09:15:33.123Z,96.90
2018-09-15T09:18:00.466Z,95.50
2018-09-15T09:20:27.980Z,95.40
2018-09-15T09:22:55.247Z,94.90
2018-09-15T09:25:22.871Z,94.60
2018-09-15T09:27:50.118Z,94.50
2018-09-15T09:30:18.130Z,95.00
2018-09-15T09:32:46.454Z,95.10
2018-09-15T09:35:14.835Z,95.30
2018-09-15T09:37:42.302Z,94.90
2018-09-15T09:40:10.113Z,94.90
2018-09-15T09:42:40.916Z,95.10
2018-09-15T09:45:09.066Z,93.80
2018-09-15T09:47:39.983Z,93.10
2018-09-15T09:50:07.464Z,93.30
2018-09-15T09:52:35.253Z,93.30
2018-09-15T09:55:02.752Z,93.60
2018-09-15T09:57:30.454Z,93.80
2018-09-15T09:59:57.861Z,93.50
2018-09-15T10:02:25.256Z,94.30
2018-09-15T10:04:55.179Z,93.30
2018-09-15T10:07:22.914Z,91.70
2018-09-15T10:09:50.201Z,92.10
2018-09-15T10:12:17.530Z,92.10
2018-09-15T10:14:44.955Z,90.40
2018-09-15T10:17:12.540Z,88.90
2018-09-15T10:19:40.039Z,89.70
2018-09-15T10:22:07.638Z,90.10
2018-09-15T10:24:35.796Z,89.70
2018-09-15T10:27:04.561Z,89.60
2018-09-15T10:29:32.239Z,87.80
2018-09-15T10:31:59.746Z,87.20
2018-09-15T10:34:26.955Z,87.50
2018-09-15T10:36:54.843Z,87.30
2018-09-15T10:39:22.194Z,85.30
2018-09-15T10:41:50.302Z,86.40
2018-09-15T10:44:17.741Z,87.30
2018-09-15T10:46:48.087Z,87.00
2018-09-15T10:49:15.915Z,86.50
2018-09-15T10:51:43.645Z,85.40
2018-09-15T10:54:10.921Z,84.70
2018-09-15T10:56:39.618Z,83.80
2018-09-15T10:59:07.322Z,83.70
2018-09-15T11:01:35.224Z,82.10
2018-09-15T11:04:03.793Z,81.90
2018-09-15T11:06:32.174Z,80.90
2018-09-15T11:08:59.530Z,82.00
2018-09-15T11:11:26.759Z,81.40
2018-09-15T11:13:53.959Z,80.30
2018-09-15T11:16:21.642Z,78.40
2018-09-15T11:18:49.820Z,78.80
2018-09-15T11:21:17.331Z,79.00
2018-09-15T11:23:45.157Z,79.40
2018-09-15T11:26:12.480Z,79.20
2018-09-15T11:28:40.626Z,76.80
2018-09-15T11:31:08.179Z,77.40
2018-09-15T11:33:35.702Z,78.40
2018-09-15T11:36:03.124Z,79.10
2018-09-15T11:38:32.210Z,77.40
2018-09-15T11:41:00.194Z,76.40
2018-09-15T11:43:27.473Z,75.50
2018-09-15T11:45:54.797Z,75.00
2018-09-15T11:48:22.074Z,74.40
2018-09-15T11:50:49.204Z,74.00
2018-09-15T11:53:17.197Z,74.00
2018-09-15T11:55:44.515Z,72.70
2018-09-15T11:58:11.744Z,72.10
2018-09-15T12:01:04.332Z,73.80
2018-09-15T12:03:33.917Z,73.90
2018-09-15T12:06:01.100Z,73.80
2018-09-15T12:08:28.329Z,73.80
2018-09-15T12:10:56.647Z,73.40
2018-09-15T12:13:23.800Z,74.00
2018-09-15T12:15:51.567Z,74.40
2018-09-15T12:18:18.708Z,74.80
2018-09-15T12:20:46.061Z,75.00
2018-09-15T12:23:13.660Z,74.80
2018-09-15T12:25:41.152Z,75.20
2018-09-15T12:28:08.742Z,74.60
2018-09-15T12:30:36.322Z,75.00
2018-09-15T12:33:03.802Z,75.30
2018-09-15T12:35:31.105Z,75.40
2018-09-15T12:37:58.465Z,75.80
2018-09-15T12:40:25.713Z,76.00
2018-09-15T12:42:53.690Z,75.40
2018-09-15T12:45:21.627Z,76.70
2018-09-15T12:47:48.946Z,77.80
2018-09-15T12:50:16.222Z,78.00
2018-09-15T12:52:43.564Z,77.20
2018-09-15T12:55:10.937Z,76.80
2018-09-15T12:57:38.428Z,76.20
2018-09-15T13:00:07.852Z,76.00
2018-09-15T13:02:35.077Z,76.70
2018-09-15T13:05:02.310Z,76.20
2018-09-15T13:07:29.583Z,73.10
2018-09-15T13:09:56.860Z,73.30
2018-09-15T13:12:24.089Z,74.30
2018-09-15T13:14:51.357Z,73.30
2018-09-15T13:17:18.738Z,71.60
2018-09-15T13:19:46.154Z,72.60
2018-09-15T13:22:14.716Z,73.70
2018-09-15T13:24:42.168Z,73.00
2018-09-15T13:27:09.540Z,73.00
2018-09-15T13:29:37.336Z,72.70
2018-09-15T13:32:04.568Z,72.10
2018-09-15T13:34:31.872Z,72.80
2018-09-15T13:36:59.057Z,74.50
2018-09-15T13:39:26.372Z,73.60
2018-09-15T13:41:54.191Z,73.80
2018-09-15T13:44:21.485Z,74.40
2018-09-15T13:46:48.808Z,75.00
2018-09-15T13:49:16.696Z,74.90
2018-09-15T13:51:44.066Z,74.40
2018-09-15T13:54:11.335Z,73.90
2018-09-15T13:56:38.755Z,72.60
2018-09-15T13:59:06.335Z,72.30
2018-09-15T14:01:34.070Z,72.10
2018-09-15T14:04:01.402Z,72.10
2018-09-15T14:06:28.640Z,66.40
2018-09-15T14:08:57.934Z,67.90
2018-09-15T14:11:25.249Z,67.10
2018-09-15T14:13:52.546Z,67.10
2018-09-15T14:16:20.040Z,66.60
2018-09-15T14:18:47.755Z,67.00
2018-09-15T14:21:15.535Z,67.10
2018-09-15T14:23:43.399Z,65.10
2018-09-15T14:26:10.809Z,66.10
2018-09-15T14:28:38.237Z,65.70
2018-09-15T14:31:05.565Z,65.20
2018-09-15T14:33:32.794Z,65.60
2018-09-15T14:35:59.961Z,66.40
2018-09-15T14:38:27.127Z,67.00
2018-09-15T14:40:54.422Z,67.50
2018-09-15T14:43:21.610Z,66.20
2018-09-15T14:45:48.832Z,65.20
2018-09-15T14:48:16.071Z,65.90
2018-09-15T14:50:43.234Z,66.20
2018-09-15T14:53:11.084Z,65.40
2018-09-15T14:55:38.354Z,65.20
2018-09-15T14:58:05.732Z,66.80
2018-09-15T15:00:33.399Z,67.60
2018-09-15T15:03:05.885Z,65.70
2018-09-15T15:05:33.250Z,65.00
2018-09-15T15:08:00.656Z,65.60
2018-09-15T15:10:28.567Z,66.10
2018-09-15T15:12:55.812Z,65.60
2018-09-15T15:15:23.240Z,64.60
2018-09-15T15:17:50.608Z,66.00
2018-09-15T15:20:18.927Z,65.20
2018-09-15T15:22:46.155Z,64.80
2018-09-15T15:25:13.514Z,65.30
2018-09-15T15:27:40.634Z,65.90
2018-09-15T15:30:07.893Z,67.40
2018-09-15T15:32:35.138Z,68.50
2018-09-15T15:35:02.491Z,68.70
2018-09-15T15:37:29.945Z,68.90
2018-09-15T15:39:57.441Z,69.10
2018-09-15T15:42:24.685Z,69.60
2018-09-15T15:44:51.994Z,69.80
2018-09-15T15:47:19.461Z,70.20
2018-09-15T15:49:47.279Z,70.50
2018-09-15T15:52:14.467Z,70.10
2018-09-15T15:54:41.805Z,71.60
2018-09-15T15:57:09.604Z,71.10
2018-09-15T15:59:36.843Z,70.90
2018-09-15T16:02:04.094Z,70.40
2018-09-15T16:04:32.427Z,69.40
2018-09-15T16:06:59.714Z,69.00
2018-09-15T16:09:27.019Z,69.40
2018-09-15T16:11:54.213Z,69.90
2018-09-15T16:14:21.527Z,69.80
2018-09-15T16:16:48.771Z,69.80
2018-09-15T16:19:16.013Z,70.20
2018-09-15T16:21:43.281Z,70.50
2018-09-15T16:24:10.510Z,70.60
2018-09-15T16:26:37.783Z,70.70
2018-09-15T16:29:05.557Z,72.10
2018-09-15T16:31:33.462Z,72.60
2018-09-15T16:34:01.154Z,72.60
2018-09-15T16:36:28.476Z,71.30
2018-09-15T16:38:55.692Z,71.70
2018-09-15T16:41:22.993Z,71.80
2018-09-15T16:43:51.025Z,71.40
2018-09-15T16:46:18.168Z,71.90
2018-09-15T16:48:46.740Z,72.40
2018-09-15T16:51:13.918Z,73.30
2018-09-15T16:53:41.098Z,74.90
2018-09-15T16:56:10.302Z,76.00
2018-09-15T16:58:37.410Z,77.10
2018-09-15T17:01:05.075Z,77.10
2018-09-15T17:03:32.540Z,77.50
2018-09-15T17:05:59.768Z,78.00
2018-09-15T17:08:26.997Z,78.70
2018-09-15T17:10:54.215Z,79.10
2018-09-15T17:13:21.574Z,80.00
2018-09-15T17:15:48.896Z,79.30
2018-09-15T17:18:16.225Z,79.00
2018-09-15T17:20:43.821Z,79.20
2018-09-15T17:23:11.065Z,77.60
2018-09-15T17:25:38.299Z,80.10
2018-09-15T17:28:05.644Z,81.00
2018-09-15T17:30:33.423Z,81.20
2018-09-15T17:33:00.819Z,81.90
2018-09-15T17:35:27.957Z,81.60
2018-09-15T17:37:55.185Z,82.70
2018-09-15T17:40:23.019Z,82.90
2018-09-15T17:42:50.262Z,83.60
2018-09-15T17:45:18.086Z,83.90
2018-09-15T17:47:45.243Z,85.20
2018-09-15T17:50:12.443Z,84.90
2018-09-15T17:52:39.704Z,85.50
2018-09-15T17:55:07.112Z,86.40
2018-09-15T17:57:39.574Z,86.90
2018-09-15T18:00:07.846Z,87.40
2018-09-15T18:02:35.338Z,88.20
2018-09-15T18:05:03.634Z,88.80
2018-09-15T18:07:31.047Z,89.50
2018-09-15T18:09:58.975Z,90.00
2018-09-15T18:12:27.421Z,90.20
2018-09-15T18:14:55.651Z,90.80
2018-09-15T18:17:22.877Z,90.80
2018-09-15T18:19:50.165Z,90.90
2018-09-15T18:22:18.351Z,91.00
2018-09-15T18:24:46.288Z,91.50
2018-09-15T18:27:13.720Z,91.40
2018-09-15T18:29:41.126Z,91.60
2018-09-15T18:32:08.440Z,91.80
2018-09-15T18:34:37.662Z,92.10
2018-09-15T18:37:05.554Z,92.20
2018-09-15T18:39:32.938Z,92.50
2018-09-15T18:42:00.381Z,92.60
2018-09-15T18:44:27.744Z,92.90
2018-09-15T18:46:55.037Z,93.20
2018-09-15T18:49:23.184Z,93.20
2018-09-15T18:51:52.084Z,93.30
2018-09-15T18:54:19.790Z,93.50
2018-09-15T18:56:48.191Z,93.80
2018-09-15T18:59:15.608Z,93.90
2018-09-15T19:01:44.754Z,94.10
2018-09-15T19:04:12.706Z,94.30
2018-09-15T19:06:40.794Z,94.40
2018-09-15T19:09:09.982Z,94.50
2018-09-15T19:11:37.986Z,94.90
2018-09-15T19:14:05.525Z,95.30
2018-09-15T19:16:32.775Z,95.40
2018-09-15T19:19:00.080Z,95.70
2018-09-15T19:21:27.844Z,95.90
2018-09-15T19:23:55.032Z,96.10
2018-09-15T19:26:22.402Z,96.20
2018-09-15T19:28:49.614Z,96.20
2018-09-15T19:31:17.080Z,96.30
2018-09-15T19:33:45.022Z,96.40
2018-09-15T19:36:12.631Z,96.40
2018-09-15T19:38:39.877Z,96.60
2018-09-15T19:41:07.278Z,96.70
2018-09-15T19:43:41.320Z,96.60
2018-09-15T19:46:08.904Z,96.80
2018-09-15T19:48:36.521Z,96.80
2018-09-15T19:51:04.741Z,96.90
2018-09-15T19:53:32.046Z,96.90
2018-09-15T19:55:59.661Z,96.90
2018-09-15T19:58:27.481Z,97.20
2018-09-15T20:00:54.754Z,97.50
2018-09-15T20:03:23.134Z,97.70
2018-09-15T20:05:50.454Z,98.00
2018-09-15T20:08:20.980Z,98.10
2018-09-15T20:10:48.411Z,98.30
2018-09-15T20:13:16.130Z,98.30
2018-09-15T20:15:43.191Z,98.40
2018-09-15T20:18:09.782Z,98.40
2018-09-15T20:20:36.116Z,98.40
2018-09-15T20:23:04.271Z,98.60
2018-09-15T20:25:31.884Z,98.60
2018-09-15T20:27:59.839Z,98.60
2018-09-15T20:30:27.146Z,98.50
2018-09-15T20:32:54.521Z,98.50
2018-09-15T20:35:22.060Z,98.70
2018-09-15T20:37:50.765Z,99.00
2018-09-15T20:40:18.874Z,99.30
2018-09-15T20:42:46.190Z,99.60
2018-09-15T20:45:13.779Z,99.90
2018-09-15T20:47:41.922Z,99.90
2018-09-15T20:50:09.143Z,99.90
2018-09-15T20:52:36.428Z,99.90
2018-09-15T20:55:04.067Z,99.90
2018-09-15T20:57:32.466Z,99.90
2018-09-15T21:00:01.288Z,99.90
2018-09-15T21:02:30.671Z,99.90
2018-09-15T21:04:57.919Z,99.90
2018-09-15T21:07:26.041Z,99.90
2018-09-15T21:09:53.214Z,99.90
2018-09-15T21:12:21.108Z,99.90
2018-09-15T21:14:48.437Z,99.90
2018-09-15T21:17:17.100Z,99.90
2018-09-15T21:19:44.800Z,99.90
2018-09-15T21:22:12.006Z,99.90
2018-09-15T21:24:39.977Z,99.90
2018-09-15T21:27:08.064Z,99.90
2018-09-15T21:29:36.186Z,99.90
2018-09-15T21:32:03.484Z,99.90
2018-09-15T21:34:33.754Z,99.90
2018-09-15T21:37:02.549Z,99.90
2018-09-15T21:39:29.960Z,99.90
2018-09-15T21:41:58.380Z,99.90
2018-09-15T21:44:25.736Z,99.90
2018-09-15T21:46:53.061Z,99.90
2018-09-15T21:49:20.592Z,99.90
2018-09-15T21:51:48.033Z,99.90
2018-09-15T21:54:15.558Z,99.90
2018-09-15T21:56:43.884Z,99.90
2018-09-15T21:59:13.560Z,99.90
2018-09-15T22:01:40.767Z,99.90
2018-09-15T22:04:13.839Z,99.90
2018-09-15T22:06:41.310Z,99.90
2018-09-15T22:09:09.659Z,99.90
2018-09-15T22:11:38.024Z,99.90
2018-09-15T22:14:05.876Z,99.90
2018-09-15T22:16:33.120Z,99.90
2018-09-15T22:19:01.398Z,99.90
2018-09-15T22:21:28.522Z,99.90
2018-09-15T22:23:56.046Z,99.90
2018-09-15T22:26:24.068Z,99.90
2018-09-15T22:28:51.183Z,99.90
2018-09-15T22:31:18.536Z,99.90
2018-09-15T22:33:45.781Z,99.90
2018-09-15T22:36:13.117Z,99.90
2018-09-15T22:38:40.492Z,99.90
2018-09-15T22:41:08.168Z,99.90
2018-09-15T22:43:35.333Z,99.90
2018-09-15T22:46:02.669Z,99.90
2018-09-15T22:48:30.157Z,99.90
2018-09-15T22:50:57.426Z,99.90
2018-09-15T22:53:25.295Z,99.90
2018-09-15T22:55:52.477Z,99.90
2018-09-15T22:58:20.834Z,99.90
2018-09-15T23:00:48.069Z,99.90
2018-09-15T23:03:15.231Z,99.90
2018-09-15T23:05:43.028Z,99.90
2018-09-15T23:08:10.280Z,99.90
2018-09-15T23:10:37.384Z,99.90
2018-09-15T23:13:04.716Z,99.90
2018-09-15T23:15:31.868Z,99.90
2018-09-15T23:17:59.112Z,99.90
2018-09-15T23:20:26.323Z,99.90
2018-09-15T23:22:53.886Z,99.90
2018-09-15T23:25:21.182Z,99.90
2018-09-15T23:27:48.352Z,99.90
2018-09-15T23:30:15.618Z,99.90
2018-09-15T23:32:42.869Z,99.90
2018-09-15T23:35:10.033Z,99.90
2018-09-15T23:37:37.593Z,99.90
2018-09-15T23:40:04.750Z,99.90
2018-09-15T23:42:31.913Z,99.90
2018-09-15T23:44:59.230Z,99.90
2018-09-15T23:47:26.459Z,99.90
2018-09-15T23:49:53.633Z,99.90
2018-09-15T23:52:20.864Z,99.90
2018-09-15T23:54:48.062Z,99.90
2018-09-15T23:57:15.244Z,99.90
2018-09-15T23:59:42.521Z,99.90
